sensor_id;sensor_type;location;lat;lon;timestamp;temperature;humidity
5578;DHT22;2811;51.900;10.734;2023-05-10T00:01:45;11.20;99.90
5578;DHT22;2811;51.900;10.734;2023-05-10T00:04:11;11.10;99.90
5578;DHT22;2811;51.900;10.734;2023-05-10T00:06:38;11.20;99.90
5578;DHT22;2811;51.900;10.734;2023-05-10T00:09:05;11.30;99.90
5578;DHT22;2811;51.900;10.734;2023-05-10T00:11:33;11.30;99.90
5578;DHT22;2811;51.900;10.734;2023-05-10T00:13:59;11.30;99.90
5578;DHT22;2811;51.900;10.734;2023-05-10T00:16:26;11.40;99.90
5578;DHT22;2811;51.900;10.734;2023-05-10T00:18:53;11.40;99.90
5578;DHT22;2811;51.900;10.734;2023-05-10T00:21:20;11.30;99.90
5578;DHT22;2811;51.900;10.734;2023-05-10T00:23:46;11.30;99.90
5578;DHT22;2811;51.900;10.734;2023-05-10T00:26:13;11.40;99.90
5578;DHT22;2811;51.900;10.734;2023-05-10T00:28:41;11.30;99.90
5578;DHT22;2811;51.900;10.734;2023-05-10T00:31:08;11.30;99.90
5578;DHT22;2811;51.900;10.734;2023-05-10T00:33:34;11.30;99.90
5578;DHT22;2811;51.900;10.734;2023-05-10T00:36:01;11.30;99.90
5578;DHT22;2811;51.900;10.734;2023-05-10T00:38:28;11.40;99.90
5578;DHT22;2811;51.900;10.734;2023-05-10T00:40:54;11.40;99.90
5578;DHT22;2811;51.900;10.734;2023-05-10T00:43:21;11.40;99.90
5578;DHT22;2811;51.900;10.734;2023-05-10T00:45:49;11.30;99.90
5578;DHT22;2811;51.900;10.734;2023-05-10T00:48:16;11.20;99.90
5578;DHT22;2811;51.900;10.734;2023-05-10T00:50:43;11.20;99.90
5578;DHT22;2811;51.900;10.734;2023-05-10T00:53:10;11.20;99.90
5578;DHT22;2811;51.900;10.734;2023-05-10T00:55:37;11.20;99.90
5578;DHT22;2811;51.900;10.734;2023-05-10T00:58:04;11.20;99.90
5578;DHT22;2811;51.900;10.734;2023-05-10T01:00:32;11.20;99.90
5578;DHT22;2811;51.900;10.734;2023-05-10T01:03:01;11.20;99.90
5578;DHT22;2811;51.900;10.734;2023-05-10T01:05:27;11.20;99.90
5578;DHT22;2811;51.900;10.734;2023-05-10T01:07:54;11.20;99.90
5578;DHT22;2811;51.900;10.734;2023-05-10T01:10:21;11.10;99.90
5578;DHT22;2811;51.900;10.734;2023-05-10T01:12:47;11.00;99.90
5578;DHT22;2811;51.900;10.734;2023-05-10T01:15:15;11.00;99.90
5578;DHT22;2811;51.900;10.734;2023-05-10T01:17:43;10.90;99.90
5578;DHT22;2811;51.900;10.734;2023-05-10T01:20:12;11.00;99.90
5578;DHT22;2811;51.900;10.734;2023-05-10T01:22:50;10.90;99.90
5578;DHT22;2811;51.900;10.734;2023-05-10T01:25:34;10.90;99.90
5578;DHT22;2811;51.900;10.734;2023-05-10T01:28:58;10.90;99.90
5578;DHT22;2811;51.900;10.734;2023-05-10T01:31:49;10.70;99.90
5578;DHT22;2811;51.900;10.734;2023-05-10T01:34:22;10.80;99.90
5578;DHT22;2811;51.900;10.734;2023-05-10T01:36:54;10.90;99.90
5578;DHT22;2811;51.900;10.734;2023-05-10T01:39:25;10.90;99.90
5578;DHT22;2811;51.900;10.734;2023-05-10T01:41:55;10.90;99.90
5578;DHT22;2811;51.900;10.734;2023-05-10T01:44:29;10.90;99.90
5578;DHT22;2811;51.900;10.734;2023-05-10T01:47:04;10.90;99.90
5578;DHT22;2811;51.900;10.734;2023-05-10T01:49:34;10.90;99.90
5578;DHT22;2811;51.900;10.734;2023-05-10T01:52:07;10.90;99.90
5578;DHT22;2811;51.900;10.734;2023-05-10T01:54:35;11.00;99.90
5578;DHT22;2811;51.900;10.734;2023-05-10T01:57:06;11.10;99.90
5578;DHT22;2811;51.900;10.734;2023-05-10T01:59:36;11.10;99.90
5578;DHT22;2811;51.900;10.734;2023-05-10T02:02:08;11.10;99.90
5578;DHT22;2811;51.900;10.734;2023-05-10T02:04:37;11.00;99.90
5578;DHT22;2811;51.900;10.734;2023-05-10T02:07:05;11.00;99.90
5578;DHT22;2811;51.900;10.734;2023-05-10T02:09:33;10.90;99.90
5578;DHT22;2811;51.900;10.734;2023-05-10T02:12:02;11.00;99.90
5578;DHT22;2811;51.900;10.734;2023-05-10T02:14:32;11.00;99.90
5578;DHT22;2811;51.900;10.734;2023-05-10T02:17:02;11.00;99.90
5578;DHT22;2811;51.900;10.734;2023-05-10T02:19:32;11.00;99.90
5578;DHT22;2811;51.900;10.734;2023-05-10T02:22:00;11.00;99.90
5578;DHT22;2811;51.900;10.734;2023-05-10T02:24:28;11.00;99.90
5578;DHT22;2811;51.900;10.734;2023-05-10T02:26:56;10.90;99.90
5578;DHT22;2811;51.900;10.734;2023-05-10T02:29:25;10.90;99.90
5578;DHT22;2811;51.900;10.734;2023-05-10T02:31:54;10.80;99.90
5578;DHT22;2811;51.900;10.734;2023-05-10T02:34:23;10.90;99.90
5578;DHT22;2811;51.900;10.734;2023-05-10T02:36:53;10.80;99.90
5578;DHT22;2811;51.900;10.734;2023-05-10T02:39:20;10.90;99.90
5578;DHT22;2811;51.900;10.734;2023-05-10T02:41:48;10.90;99.90
5578;DHT22;2811;51.900;10.734;2023-05-10T02:44:18;10.90;99.90
5578;DHT22;2811;51.900;10.734;2023-05-10T02:46:46;10.90;99.90
5578;DHT22;2811;51.900;10.734;2023-05-10T02:49:13;10.80;99.90
5578;DHT22;2811;51.900;10.734;2023-05-10T02:51:41;10.70;99.90
5578;DHT22;2811;51.900;10.734;2023-05-10T02:54:13;10.70;99.90
5578;DHT22;2811;51.900;10.734;2023-05-10T02:56:46;10.70;99.90
5578;DHT22;2811;51.900;10.734;2023-05-10T02:59:13;10.70;99.90
5578;DHT22;2811;51.900;10.734;2023-05-10T03:01:40;10.60;99.90
5578;DHT22;2811;51.900;10.734;2023-05-10T03:04:07;10.50;99.90
5578;DHT22;2811;51.900;10.734;2023-05-10T03:06:34;10.50;99.90
5578;DHT22;2811;51.900;10.734;2023-05-10T03:09:01;10.50;99.90
5578;DHT22;2811;51.900;10.734;2023-05-10T03:11:39;10.50;99.90
5578;DHT22;2811;51.900;10.734;2023-05-10T03:14:21;10.50;99.90
5578;DHT22;2811;51.900;10.734;2023-05-10T03:16:56;10.50;99.90
5578;DHT22;2811;51.900;10.734;2023-05-10T03:19:27;10.60;99.90
5578;DHT22;2811;51.900;10.734;2023-05-10T03:21:59;10.70;99.90
5578;DHT22;2811;51.900;10.734;2023-05-10T03:24:30;10.60;99.90
5578;DHT22;2811;51.900;10.734;2023-05-10T03:27:00;10.70;99.90
5578;DHT22;2811;51.900;10.734;2023-05-10T03:29:28;10.70;99.90
5578;DHT22;2811;51.900;10.734;2023-05-10T03:31:57;10.70;99.90
5578;DHT22;2811;51.900;10.734;2023-05-10T03:34:24;10.80;99.90
5578;DHT22;2811;51.900;10.734;2023-05-10T03:36:51;10.80;99.90
5578;DHT22;2811;51.900;10.734;2023-05-10T03:39:18;10.80;99.90
5578;DHT22;2811;51.900;10.734;2023-05-10T03:41:44;10.80;99.90
5578;DHT22;2811;51.900;10.734;2023-05-10T03:44:12;10.90;99.90
5578;DHT22;2811;51.900;10.734;2023-05-10T03:46:39;10.90;99.90
5578;DHT22;2811;51.900;10.734;2023-05-10T03:49:05;11.00;99.90
5578;DHT22;2811;51.900;10.734;2023-05-10T03:51:32;11.00;99.90
5578;DHT22;2811;51.900;10.734;2023-05-10T03:53:59;11.00;99.90
5578;DHT22;2811;51.900;10.734;2023-05-10T03:56:25;11.00;99.90
5578;DHT22;2811;51.900;10.734;2023-05-10T03:58:52;11.10;99.90
5578;DHT22;2811;51.900;10.734;2023-05-10T04:01:20;11.10;99.90
5578;DHT22;2811;51.900;10.734;2023-05-10T04:03:46;11.20;99.90
5578;DHT22;2811;51.900;10.734;2023-05-10T04:06:13;11.30;99.90
5578;DHT22;2811;51.900;10.734;2023-05-10T04:08:40;11.30;99.90
5578;DHT22;2811;51.900;10.734;2023-05-10T04:11:06;11.30;99.90
5578;DHT22;2811;51.900;10.734;2023-05-10T04:13:33;11.50;99.90
5578;DHT22;2811;51.900;10.734;2023-05-10T04:16:00;11.50;99.90
5578;DHT22;2811;51.900;10.734;2023-05-10T04:18:28;11.50;99.90
5578;DHT22;2811;51.900;10.734;2023-05-10T04:20:55;11.50;99.90
5578;DHT22;2811;51.900;10.734;2023-05-10T04:23:21;11.50;99.90
5578;DHT22;2811;51.900;10.734;2023-05-10T04:25:48;11.50;99.90
5578;DHT22;2811;51.900;10.734;2023-05-10T04:28:15;11.50;99.90
5578;DHT22;2811;51.900;10.734;2023-05-10T04:30:41;11.60;99.90
5578;DHT22;2811;51.900;10.734;2023-05-10T04:33:08;11.70;99.90
5578;DHT22;2811;51.900;10.734;2023-05-10T04:35:36;11.60;99.90
5578;DHT22;2811;51.900;10.734;2023-05-10T04:38:04;11.50;99.90
5578;DHT22;2811;51.900;10.734;2023-05-10T04:40:31;11.50;99.90
5578;DHT22;2811;51.900;10.734;2023-05-10T04:42:57;11.50;99.90
5578;DHT22;2811;51.900;10.734;2023-05-10T04:45:24;11.50;99.90
5578;DHT22;2811;51.900;10.734;2023-05-10T04:47:51;11.60;99.90
5578;DHT22;2811;51.900;10.734;2023-05-10T04:50:17;11.60;99.90
5578;DHT22;2811;51.900;10.734;2023-05-10T04:52:45;11.80;99.90
5578;DHT22;2811;51.900;10.734;2023-05-10T04:55:12;11.80;99.90
5578;DHT22;2811;51.900;10.734;2023-05-10T04:57:39;11.90;99.90
5578;DHT22;2811;51.900;10.734;2023-05-10T05:00:06;12.00;99.90
5578;DHT22;2811;51.900;10.734;2023-05-10T05:02:33;12.00;99.90
5578;DHT22;2811;51.900;10.734;2023-05-10T05:05:00;12.10;99.90
5578;DHT22;2811;51.900;10.734;2023-05-10T05:07:26;12.10;99.90
5578;DHT22;2811;51.900;10.734;2023-05-10T05:09:54;12.10;99.90
5578;DHT22;2811;51.900;10.734;2023-05-10T05:12:21;12.10;99.90
5578;DHT22;2811;51.900;10.734;2023-05-10T05:14:48;12.10;99.90
5578;DHT22;2811;51.900;10.734;2023-05-10T05:17:14;12.10;99.90
5578;DHT22;2811;51.900;10.734;2023-05-10T05:19:41;12.10;99.90
5578;DHT22;2811;51.900;10.734;2023-05-10T05:22:08;12.20;99.90
5578;DHT22;2811;51.900;10.734;2023-05-10T05:24:35;12.30;99.90
5578;DHT22;2811;51.900;10.734;2023-05-10T05:27:04;12.50;99.90
5578;DHT22;2811;51.900;10.734;2023-05-10T05:29:31;12.60;99.90
5578;DHT22;2811;51.900;10.734;2023-05-10T05:31:58;12.70;99.90
5578;DHT22;2811;51.900;10.734;2023-05-10T05:34:25;12.90;99.90
5578;DHT22;2811;51.900;10.734;2023-05-10T05:36:52;13.00;99.90
5578;DHT22;2811;51.900;10.734;2023-05-10T05:39:19;13.20;99.90
5578;DHT22;2811;51.900;10.734;2023-05-10T05:41:45;13.30;99.90
5578;DHT22;2811;51.900;10.734;2023-05-10T05:44:13;13.40;99.90
5578;DHT22;2811;51.900;10.734;2023-05-10T05:46:40;13.60;99.90
5578;DHT22;2811;51.900;10.734;2023-05-10T05:49:07;13.70;99.90
5578;DHT22;2811;51.900;10.734;2023-05-10T05:51:33;13.80;99.90
5578;DHT22;2811;51.900;10.734;2023-05-10T05:54:01;14.00;99.90
5578;DHT22;2811;51.900;10.734;2023-05-10T05:56:29;14.30;99.90
5578;DHT22;2811;51.900;10.734;2023-05-10T05:58:56;14.50;99.90
5578;DHT22;2811;51.900;10.734;2023-05-10T06:01:24;14.60;99.90
5578;DHT22;2811;51.900;10.734;2023-05-10T06:03:51;14.70;99.90
5578;DHT22;2811;51.900;10.734;2023-05-10T06:06:17;14.70;99.90
5578;DHT22;2811;51.900;10.734;2023-05-10T06:08:44;14.80;99.90
5578;DHT22;2811;51.900;10.734;2023-05-10T06:11:10;14.80;99.90
5578;DHT22;2811;51.900;10.734;2023-05-10T06:13:37;14.90;99.90
5578;DHT22;2811;51.900;10.734;2023-05-10T06:16:04;15.10;99.90
5578;DHT22;2811;51.900;10.734;2023-05-10T06:18:32;15.20;99.90
5578;DHT22;2811;51.900;10.734;2023-05-10T06:20:59;15.30;99.90
5578;DHT22;2811;51.900;10.734;2023-05-10T06:23:26;15.40;99.90
5578;DHT22;2811;51.900;10.734;2023-05-10T06:25:53;15.30;99.90
5578;DHT22;2811;51.900;10.734;2023-05-10T06:28:20;15.20;99.90
5578;DHT22;2811;51.900;10.734;2023-05-10T06:30:46;15.00;99.90
5578;DHT22;2811;51.900;10.734;2023-05-10T06:33:13;14.80;99.90
5578;DHT22;2811;51.900;10.734;2023-05-10T06:35:42;14.80;99.90
5578;DHT22;2811;51.900;10.734;2023-05-10T06:38:09;14.70;99.90
5578;DHT22;2811;51.900;10.734;2023-05-10T06:40:36;14.60;99.90
5578;DHT22;2811;51.900;10.734;2023-05-10T06:43:03;14.80;99.90
5578;DHT22;2811;51.900;10.734;2023-05-10T06:45:29;15.00;99.90
5578;DHT22;2811;51.900;10.734;2023-05-10T06:47:56;15.10;99.90
5578;DHT22;2811;51.900;10.734;2023-05-10T06:50:23;15.20;99.90
5578;DHT22;2811;51.900;10.734;2023-05-10T06:52:51;15.30;99.90
5578;DHT22;2811;51.900;10.734;2023-05-10T06:55:17;15.40;99.90
5578;DHT22;2811;51.900;10.734;2023-05-10T06:57:44;15.40;99.90
5578;DHT22;2811;51.900;10.734;2023-05-10T07:00:11;15.40;99.90
5578;DHT22;2811;51.900;10.734;2023-05-10T07:02:38;15.40;99.90
5578;DHT22;2811;51.900;10.734;2023-05-10T07:05:05;15.50;99.90
5578;DHT22;2811;51.900;10.734;2023-05-10T07:07:32;15.50;99.90
5578;DHT22;2811;51.900;10.734;2023-05-10T07:10:00;15.60;99.90
5578;DHT22;2811;51.900;10.734;2023-05-10T07:12:27;15.70;99.90
5578;DHT22;2811;51.900;10.734;2023-05-10T07:14:53;15.90;99.90
5578;DHT22;2811;51.900;10.734;2023-05-10T07:17:20;15.80;99.90
5578;DHT22;2811;51.900;10.734;2023-05-10T07:19:46;15.70;99.90
5578;DHT22;2811;51.900;10.734;2023-05-10T07:22:14;15.90;99.90
5578;DHT22;2811;51.900;10.734;2023-05-10T07:24:40;15.90;99.90
5578;DHT22;2811;51.900;10.734;2023-05-10T07:27:08;15.90;99.90
5578;DHT22;2811;51.900;10.734;2023-05-10T07:29:35;16.00;99.90
5578;DHT22;2811;51.900;10.734;2023-05-10T07:32:02;16.10;99.90
5578;DHT22;2811;51.900;10.734;2023-05-10T07:34:29;16.20;99.90
5578;DHT22;2811;51.900;10.734;2023-05-10T07:36:58;16.00;99.90
5578;DHT22;2811;51.900;10.734;2023-05-10T07:39:26;16.00;99.90
5578;DHT22;2811;51.900;10.734;2023-05-10T07:41:52;15.90;99.90
5578;DHT22;2811;51.900;10.734;2023-05-10T07:44:20;15.70;99.90
5578;DHT22;2811;51.900;10.734;2023-05-10T07:46:47;15.80;99.90
5578;DHT22;2811;51.900;10.734;2023-05-10T07:49:14;15.90;99.90
5578;DHT22;2811;51.900;10.734;2023-05-10T07:51:41;15.90;99.90
5578;DHT22;2811;51.900;10.734;2023-05-10T07:54:07;16.00;99.90
5578;DHT22;2811;51.900;10.734;2023-05-10T07:56:34;16.00;99.90
5578;DHT22;2811;51.900;10.734;2023-05-10T07:59:02;15.80;99.90
5578;DHT22;2811;51.900;10.734;2023-05-10T08:01:31;15.50;99.90
5578;DHT22;2811;51.900;10.734;2023-05-10T08:03:58;15.20;99.90
5578;DHT22;2811;51.900;10.734;2023-05-10T08:06:25;14.90;99.90
5578;DHT22;2811;51.900;10.734;2023-05-10T08:08:53;14.70;99.90
5578;DHT22;2811;51.900;10.734;2023-05-10T08:11:20;14.60;99.90
5578;DHT22;2811;51.900;10.734;2023-05-10T08:13:48;14.80;99.90
5578;DHT22;2811;51.900;10.734;2023-05-10T08:16:15;14.90;99.90
5578;DHT22;2811;51.900;10.734;2023-05-10T08:18:44;15.10;99.90
5578;DHT22;2811;51.900;10.734;2023-05-10T08:21:12;15.30;99.90
5578;DHT22;2811;51.900;10.734;2023-05-10T08:23:39;15.30;99.90
5578;DHT22;2811;51.900;10.734;2023-05-10T08:26:06;15.40;99.90
5578;DHT22;2811;51.900;10.734;2023-05-10T08:28:33;15.10;99.90
5578;DHT22;2811;51.900;10.734;2023-05-10T08:30:59;14.90;99.90
5578;DHT22;2811;51.900;10.734;2023-05-10T08:33:26;14.90;99.90
5578;DHT22;2811;51.900;10.734;2023-05-10T08:35:54;15.00;99.90
5578;DHT22;2811;51.900;10.734;2023-05-10T08:38:21;15.10;99.90
5578;DHT22;2811;51.900;10.734;2023-05-10T08:40:49;15.40;99.90
5578;DHT22;2811;51.900;10.734;2023-05-10T08:43:16;15.60;99.90
5578;DHT22;2811;51.900;10.734;2023-05-10T08:45:44;15.70;99.90
5578;DHT22;2811;51.900;10.734;2023-05-10T08:48:12;15.80;99.90
5578;DHT22;2811;51.900;10.734;2023-05-10T08:50:39;15.90;99.90
5578;DHT22;2811;51.900;10.734;2023-05-10T08:53:09;16.00;99.90
5578;DHT22;2811;51.900;10.734;2023-05-10T08:55:37;16.50;99.90
5578;DHT22;2811;51.900;10.734;2023-05-10T08:58:05;16.50;99.90
5578;DHT22;2811;51.900;10.734;2023-05-10T09:00:32;16.50;99.90
5578;DHT22;2811;51.900;10.734;2023-05-10T09:02:59;16.80;99.90
5578;DHT22;2811;51.900;10.734;2023-05-10T09:05:27;17.10;99.90
5578;DHT22;2811;51.900;10.734;2023-05-10T09:07:53;17.20;99.90
5578;DHT22;2811;51.900;10.734;2023-05-10T09:10:23;17.00;99.90
5578;DHT22;2811;51.900;10.734;2023-05-10T09:12:51;16.90;99.90
5578;DHT22;2811;51.900;10.734;2023-05-10T09:15:18;16.90;99.90
5578;DHT22;2811;51.900;10.734;2023-05-10T09:17:46;16.80;99.90
5578;DHT22;2811;51.900;10.734;2023-05-10T09:20:13;16.90;99.90
5578;DHT22;2811;51.900;10.734;2023-05-10T09:22:40;17.10;99.90
5578;DHT22;2811;51.900;10.734;2023-05-10T09:25:08;16.90;99.90
5578;DHT22;2811;51.900;10.734;2023-05-10T09:27:36;16.80;99.90
5578;DHT22;2811;51.900;10.734;2023-05-10T09:30:04;16.60;99.90
5578;DHT22;2811;51.900;10.734;2023-05-10T09:32:39;16.40;99.90
5578;DHT22;2811;51.900;10.734;2023-05-10T09:35:07;16.60;99.90
5578;DHT22;2811;51.900;10.734;2023-05-10T09:37:34;16.90;99.90
5578;DHT22;2811;51.900;10.734;2023-05-10T09:40:00;16.70;99.90
5578;DHT22;2811;51.900;10.734;2023-05-10T09:42:30;16.80;99.90
5578;DHT22;2811;51.900;10.734;2023-05-10T09:45:02;17.00;99.90
5578;DHT22;2811;51.900;10.734;2023-05-10T09:47:29;16.70;99.90
5578;DHT22;2811;51.900;10.734;2023-05-10T09:49:57;16.40;99.90
5578;DHT22;2811;51.900;10.734;2023-05-10T09:52:28;16.20;99.90
5578;DHT22;2811;51.900;10.734;2023-05-10T09:54:55;16.10;99.90
5578;DHT22;2811;51.900;10.734;2023-05-10T09:57:23;16.00;99.90
5578;DHT22;2811;51.900;10.734;2023-05-10T09:59:50;15.90;99.90
5578;DHT22;2811;51.900;10.734;2023-05-10T10:02:20;15.90;99.90
5578;DHT22;2811;51.900;10.734;2023-05-10T10:04:49;15.90;99.90
5578;DHT22;2811;51.900;10.734;2023-05-10T10:07:22;16.00;99.90
5578;DHT22;2811;51.900;10.734;2023-05-10T10:09:51;16.00;99.90
5578;DHT22;2811;51.900;10.734;2023-05-10T10:12:18;16.00;99.90
5578;DHT22;2811;51.900;10.734;2023-05-10T10:14:46;16.10;99.90
5578;DHT22;2811;51.900;10.734;2023-05-10T10:17:13;16.40;99.90
5578;DHT22;2811;51.900;10.734;2023-05-10T10:19:41;16.40;99.90
5578;DHT22;2811;51.900;10.734;2023-05-10T10:22:08;16.80;99.90
5578;DHT22;2811;51.900;10.734;2023-05-10T10:24:37;16.50;99.90
5578;DHT22;2811;51.900;10.734;2023-05-10T10:27:12;16.40;99.90
5578;DHT22;2811;51.900;10.734;2023-05-10T10:29:49;16.40;99.90
5578;DHT22;2811;51.900;10.734;2023-05-10T10:32:22;16.30;99.90
5578;DHT22;2811;51.900;10.734;2023-05-10T10:34:54;16.30;99.90
5578;DHT22;2811;51.900;10.734;2023-05-10T10:37:21;16.20;99.90
5578;DHT22;2811;51.900;10.734;2023-05-10T10:39:48;16.30;99.90
5578;DHT22;2811;51.900;10.734;2023-05-10T10:42:44;16.20;99.90
5578;DHT22;2811;51.900;10.734;2023-05-10T10:45:12;16.20;99.90
5578;DHT22;2811;51.900;10.734;2023-05-10T10:47:39;16.20;99.90
5578;DHT22;2811;51.900;10.734;2023-05-10T10:50:07;16.20;99.90
5578;DHT22;2811;51.900;10.734;2023-05-10T10:52:35;16.30;99.90
5578;DHT22;2811;51.900;10.734;2023-05-10T10:55:05;16.40;99.90
5578;DHT22;2811;51.900;10.734;2023-05-10T10:57:43;16.50;99.90
5578;DHT22;2811;51.900;10.734;2023-05-10T11:00:27;16.60;99.90
5578;DHT22;2811;51.900;10.734;2023-05-10T11:02:56;16.50;99.90
5578;DHT22;2811;51.900;10.734;2023-05-10T11:05:43;16.60;99.90
5578;DHT22;2811;51.900;10.734;2023-05-10T11:08:12;16.50;99.90
5578;DHT22;2811;51.900;10.734;2023-05-10T11:10:39;16.50;99.90
5578;DHT22;2811;51.900;10.734;2023-05-10T11:13:07;16.40;99.90
5578;DHT22;2811;51.900;10.734;2023-05-10T11:15:36;16.30;99.90
5578;DHT22;2811;51.900;10.734;2023-05-10T11:18:20;16.40;99.90
5578;DHT22;2811;51.900;10.734;2023-05-10T11:20:52;16.40;99.90
5578;DHT22;2811;51.900;10.734;2023-05-10T11:23:21;16.20;99.90
5578;DHT22;2811;51.900;10.734;2023-05-10T11:25:49;16.10;99.90
5578;DHT22;2811;51.900;10.734;2023-05-10T11:28:17;16.00;99.90
5578;DHT22;2811;51.900;10.734;2023-05-10T11:30:44;15.90;99.90
5578;DHT22;2811;51.900;10.734;2023-05-10T11:33:16;16.00;99.90
5578;DHT22;2811;51.900;10.734;2023-05-10T11:35:43;16.00;99.90
5578;DHT22;2811;51.900;10.734;2023-05-10T11:38:12;15.90;99.90
5578;DHT22;2811;51.900;10.734;2023-05-10T11:40:40;15.60;99.90
5578;DHT22;2811;51.900;10.734;2023-05-10T11:43:08;15.60;99.90
5578;DHT22;2811;51.900;10.734;2023-05-10T11:45:35;15.80;99.90
5578;DHT22;2811;51.900;10.734;2023-05-10T11:48:02;15.90;99.90
5578;DHT22;2811;51.900;10.734;2023-05-10T11:50:31;16.10;99.90
5578;DHT22;2811;51.900;10.734;2023-05-10T11:52:58;16.30;99.90
5578;DHT22;2811;51.900;10.734;2023-05-10T11:55:26;16.50;99.90
5578;DHT22;2811;51.900;10.734;2023-05-10T11:57:53;16.60;99.90
5578;DHT22;2811;51.900;10.734;2023-05-10T12:00:20;16.70;99.90
5578;DHT22;2811;51.900;10.734;2023-05-10T12:02:48;16.80;99.90
5578;DHT22;2811;51.900;10.734;2023-05-10T12:05:15;16.90;99.90
5578;DHT22;2811;51.900;10.734;2023-05-10T12:07:42;17.00;99.90
5578;DHT22;2811;51.900;10.734;2023-05-10T12:10:10;17.30;99.90
5578;DHT22;2811;51.900;10.734;2023-05-10T12:12:42;17.40;99.90
5578;DHT22;2811;51.900;10.734;2023-05-10T12:15:13;17.50;99.90
5578;DHT22;2811;51.900;10.734;2023-05-10T12:17:43;17.60;99.90
5578;DHT22;2811;51.900;10.734;2023-05-10T12:20:17;17.60;99.90
5578;DHT22;2811;51.900;10.734;2023-05-10T12:22:45;17.40;99.90
5578;DHT22;2811;51.900;10.734;2023-05-10T12:25:12;17.20;99.90
5578;DHT22;2811;51.900;10.734;2023-05-10T12:27:40;17.10;99.90
5578;DHT22;2811;51.900;10.734;2023-05-10T12:30:08;16.90;99.90
5578;DHT22;2811;51.900;10.734;2023-05-10T12:32:39;16.80;99.90
5578;DHT22;2811;51.900;10.734;2023-05-10T12:35:06;16.60;99.90
5578;DHT22;2811;51.900;10.734;2023-05-10T12:37:33;16.40;99.90
5578;DHT22;2811;51.900;10.734;2023-05-10T12:40:06;16.40;99.90
5578;DHT22;2811;51.900;10.734;2023-05-10T12:42:33;16.50;99.90
5578;DHT22;2811;51.900;10.734;2023-05-10T12:45:02;16.50;99.90
5578;DHT22;2811;51.900;10.734;2023-05-10T12:47:29;16.50;99.90
5578;DHT22;2811;51.900;10.734;2023-05-10T12:49:56;16.70;99.90
5578;DHT22;2811;51.900;10.734;2023-05-10T12:52:23;16.90;99.90
5578;DHT22;2811;51.900;10.734;2023-05-10T12:54:50;16.90;99.90
5578;DHT22;2811;51.900;10.734;2023-05-10T12:57:18;17.00;99.90
5578;DHT22;2811;51.900;10.734;2023-05-10T12:59:44;17.20;99.90
5578;DHT22;2811;51.900;10.734;2023-05-10T13:02:12;17.30;99.90
5578;DHT22;2811;51.900;10.734;2023-05-10T13:04:40;17.50;99.90
5578;DHT22;2811;51.900;10.734;2023-05-10T13:07:07;17.60;99.90
5578;DHT22;2811;51.900;10.734;2023-05-10T13:09:34;17.80;99.90
5578;DHT22;2811;51.900;10.734;2023-05-10T13:12:01;17.80;99.90
5578;DHT22;2811;51.900;10.734;2023-05-10T13:14:29;17.80;99.90
5578;DHT22;2811;51.900;10.734;2023-05-10T13:16:56;18.00;99.90
5578;DHT22;2811;51.900;10.734;2023-05-10T13:19:24;18.40;99.90
5578;DHT22;2811;51.900;10.734;2023-05-10T13:21:50;18.00;99.90
5578;DHT22;2811;51.900;10.734;2023-05-10T13:24:17;18.60;99.90
5578;DHT22;2811;51.900;10.734;2023-05-10T13:26:44;18.80;99.90
5578;DHT22;2811;51.900;10.734;2023-05-10T13:29:10;18.90;99.90
5578;DHT22;2811;51.900;10.734;2023-05-10T13:31:37;18.90;99.90
5578;DHT22;2811;51.900;10.734;2023-05-10T13:34:05;18.90;99.90
5578;DHT22;2811;51.900;10.734;2023-05-10T13:36:33;18.80;99.90
5578;DHT22;2811;51.900;10.734;2023-05-10T13:38:59;19.00;99.90
5578;DHT22;2811;51.900;10.734;2023-05-10T13:41:28;19.50;99.90
5578;DHT22;2811;51.900;10.734;2023-05-10T13:43:54;19.30;99.90
5578;DHT22;2811;51.900;10.734;2023-05-10T13:46:21;19.90;99.90
5578;DHT22;2811;51.900;10.734;2023-05-10T13:48:47;19.60;99.90
5578;DHT22;2811;51.900;10.734;2023-05-10T13:51:14;19.70;99.90
5578;DHT22;2811;51.900;10.734;2023-05-10T13:53:42;19.60;99.90
5578;DHT22;2811;51.900;10.734;2023-05-10T13:56:09;19.40;99.90
5578;DHT22;2811;51.900;10.734;2023-05-10T13:58:35;19.60;99.90
5578;DHT22;2811;51.900;10.734;2023-05-10T14:01:02;19.70;99.90
5578;DHT22;2811;51.900;10.734;2023-05-10T14:03:30;19.50;99.90
5578;DHT22;2811;51.900;10.734;2023-05-10T14:05:57;19.30;99.90
5578;DHT22;2811;51.900;10.734;2023-05-10T14:08:24;19.00;99.90
5578;DHT22;2811;51.900;10.734;2023-05-10T14:10:53;18.90;99.90
5578;DHT22;2811;51.900;10.734;2023-05-10T14:13:21;19.10;99.90
5578;DHT22;2811;51.900;10.734;2023-05-10T14:15:48;19.30;99.90
5578;DHT22;2811;51.900;10.734;2023-05-10T14:18:14;19.60;99.90
5578;DHT22;2811;51.900;10.734;2023-05-10T14:20:41;19.50;99.90
5578;DHT22;2811;51.900;10.734;2023-05-10T14:23:08;19.90;99.90
5578;DHT22;2811;51.900;10.734;2023-05-10T14:25:35;20.20;99.90
5578;DHT22;2811;51.900;10.734;2023-05-10T14:28:03;20.50;99.90
5578;DHT22;2811;51.900;10.734;2023-05-10T14:30:30;20.70;99.90
5578;DHT22;2811;51.900;10.734;2023-05-10T14:32:58;20.40;99.90
5578;DHT22;2811;51.900;10.734;2023-05-10T14:35:26;20.10;99.90
5578;DHT22;2811;51.900;10.734;2023-05-10T14:37:53;20.20;99.90
5578;DHT22;2811;51.900;10.734;2023-05-10T14:40:20;20.20;99.90
5578;DHT22;2811;51.900;10.734;2023-05-10T14:42:47;20.30;99.90
5578;DHT22;2811;51.900;10.734;2023-05-10T14:45:15;20.30;99.90
5578;DHT22;2811;51.900;10.734;2023-05-10T14:47:41;20.50;99.90
5578;DHT22;2811;51.900;10.734;2023-05-10T14:50:08;20.10;99.90
5578;DHT22;2811;51.900;10.734;2023-05-10T14:52:35;20.20;99.90
5578;DHT22;2811;51.900;10.734;2023-05-10T14:55:02;20.20;99.90
5578;DHT22;2811;51.900;10.734;2023-05-10T14:57:28;20.20;99.90
5578;DHT22;2811;51.900;10.734;2023-05-10T14:59:55;20.30;99.90
5578;DHT22;2811;51.900;10.734;2023-05-10T15:02:23;20.30;99.90
5578;DHT22;2811;51.900;10.734;2023-05-10T15:04:50;20.30;99.90
5578;DHT22;2811;51.900;10.734;2023-05-10T15:07:17;20.40;99.90
5578;DHT22;2811;51.900;10.734;2023-05-10T15:09:44;20.30;99.90
5578;DHT22;2811;51.900;10.734;2023-05-10T15:12:10;20.50;99.90
5578;DHT22;2811;51.900;10.734;2023-05-10T15:14:37;20.60;99.90
5578;DHT22;2811;51.900;10.734;2023-05-10T15:17:06;20.70;99.90
5578;DHT22;2811;51.900;10.734;2023-05-10T15:19:34;20.70;99.90
5578;DHT22;2811;51.900;10.734;2023-05-10T15:22:01;20.80;99.90
5578;DHT22;2811;51.900;10.734;2023-05-10T15:24:28;20.70;99.90
5578;DHT22;2811;51.900;10.734;2023-05-10T15:26:54;20.60;99.90
5578;DHT22;2811;51.900;10.734;2023-05-10T15:29:21;20.30;99.90
5578;DHT22;2811;51.900;10.734;2023-05-10T15:31:48;20.20;99.90
5578;DHT22;2811;51.900;10.734;2023-05-10T15:34:15;19.90;99.90
5578;DHT22;2811;51.900;10.734;2023-05-10T15:36:44;19.90;99.90
5578;DHT22;2811;51.900;10.734;2023-05-10T15:39:11;19.80;99.90
5578;DHT22;2811;51.900;10.734;2023-05-10T15:41:37;20.00;99.90
5578;DHT22;2811;51.900;10.734;2023-05-10T15:44:04;19.60;99.90
5578;DHT22;2811;51.900;10.734;2023-05-10T15:46:31;19.50;99.90
5578;DHT22;2811;51.900;10.734;2023-05-10T15:48:58;19.70;99.90
5578;DHT22;2811;51.900;10.734;2023-05-10T15:51:24;19.70;99.90